Raleigh County Memorial Airport Beckley US
ICAO: KBKW
IATA: BKW
Category: Medium
Scheduled Services: Yes

Elevation: 2504 ft
TransAlt. 18000 ft.

Airport Communications:
CHARLESTON APP/DEP:118.95
ASOS:121.55
AWOS 3:124.65
ELKINS RDO:117.7
CTAF/UNICOM:123

KBKW Zoom In..

Runways:

(A) RW 01 length 6750 ft width 150 ft
---- / hdg 13

(B) RW 10 length 5001 ft width 100 ft
---- / hdg 103

(C) RW 19 length 6750 ft width 150 ft
ILS 111.70 / hdg 193

(D) RW 28 length 5001 ft width 100 ft
---- / hdg 283

Location; KBKW
Day. 23 / Time. 09.51 Zulu
* Altimeter: 29.89
* Temperature: 17° c. 62.6°f.
* Wind from: 140° Speed 04 kn.
Dewpoint: 15° c.
Visibility: 10 Statute Miles.
Clouds: Clear (automated report).

KBKW 230951Z AUTO 14004KT 10SM CLR 17/15 A2989 RMK AO2 SLP094 T01670150 TSNO


Wind From 140°
Speed 04 kn.

 
 
jpsmedia.com for Web Design worldairports.se 2018   terms of use